Time;durP1;ratioP1;P1;durP2;ratioP2;P2;SDS_P1;SDS_P2;PMS_P1;PMS_P2;Temp;Humidity;BMP_temperature;BMP_pressure;BME280_temperature;BME280_humidity;BME280_pressure;Samples;Min_cycle;Max_cycle;Signal;HPM_P1;HPM_P2
2022/04/17 00:00:05;;;;;;;31.38;21.85;;;7.20;99.90;;;;;;5071486;28;20033;-62
2022/04/17 00:02:31;;;;;;;33.03;23.92;;;7.10;99.90;;;;;;5070026;28;20110;-62
2022/04/17 00:04:56;;;;;;;30.58;24.15;;;7.00;99.90;;;;;;5069747;28;20367;-62
2022/04/17 00:07:22;;;;;;;30.05;22.42;;;6.90;99.90;;;;;;5071539;28;20084;-61
2022/04/17 00:09:48;;;;;;;33.33;25.20;;;6.80;99.90;;;;;;5070630;28;20486;-62
2022/04/17 00:12:13;;;;;;;34.15;25.20;;;6.70;99.90;;;;;;5070350;28;20049;-63
2022/04/17 00:14:39;;;;;;;32.58;24.00;;;6.60;99.90;;;;;;5070846;28;20087;-66
2022/04/17 00:17:05;;;;;;;33.95;25.30;;;6.60;99.90;;;;;;5069709;28;20076;-62
2022/04/17 00:19:30;;;;;;;32.95;25.52;;;6.50;99.90;;;;;;5071191;28;20037;-61
2022/04/17 00:21:56;;;;;;;34.70;24.88;;;6.50;99.90;;;;;;5069688;28;20079;-62
2022/04/17 00:24:22;;;;;;;35.28;26.17;;;6.60;99.90;;;;;;5071209;28;20052;-63
2022/04/17 00:26:47;;;;;;;36.10;26.45;;;6.50;99.90;;;;;;5070889;28;20036;-62
2022/04/17 00:29:13;;;;;;;33.28;26.00;;;6.50;99.90;;;;;;5070926;28;20117;-62
2022/04/17 00:31:39;;;;;;;35.70;26.48;;;6.40;99.90;;;;;;5070155;28;20098;-63
2022/04/17 00:34:04;;;;;;;34.45;26.17;;;6.40;99.90;;;;;;5070808;28;20147;-62
2022/04/17 00:36:31;;;;;;;36.20;27.40;;;6.40;99.90;;;;;;5070047;28;20048;-61
2022/04/17 00:38:56;;;;;;;31.48;23.77;;;6.40;99.90;;;;;;5070579;28;20144;-61
2022/04/17 00:41:22;;;;;;;35.22;25.25;;;6.40;99.90;;;;;;5070051;28;20529;-63
2022/04/17 00:43:48;;;;;;;30.83;24.80;;;6.40;99.90;;;;;;5070675;28;20051;-63
2022/04/17 00:46:15;;;;;;;32.25;25.17;;;6.40;99.90;;;;;;5071114;28;20051;-64
2022/04/17 00:48:41;;;;;;;31.23;25.27;;;6.40;99.90;;;;;;5070977;28;20055;-62
2022/04/17 00:51:08;;;;;;;33.83;26.20;;;6.40;99.90;;;;;;5069387;28;20132;-62
2022/04/17 00:53:36;;;;;;;37.10;27.42;;;6.40;99.90;;;;;;5070863;28;20056;-62
2022/04/17 00:56:02;;;;;;;37.45;27.70;;;6.30;99.90;;;;;;5070099;28;20078;-62
2022/04/17 00:58:32;;;;;;;35.25;27.80;;;6.30;99.90;;;;;;5070630;28;20108;-61
2022/04/17 01:00:57;;;;;;;35.15;28.48;;;6.30;99.90;;;;;;5069414;28;20055;-62
2022/04/17 01:03:23;;;;;;;33.60;28.05;;;6.20;99.90;;;;;;5069897;28;20056;-62
2022/04/17 01:05:49;;;;;;;37.75;29.45;;;6.20;99.90;;;;;;5070474;28;20045;-62
2022/04/17 01:08:15;;;;;;;41.65;30.42;;;6.20;99.90;;;;;;5073210;28;20033;-63
2022/04/17 01:10:41;;;;;;;36.58;30.42;;;6.20;99.90;;;;;;5056839;28;20131;-62
2022/04/17 01:13:10;;;;;;;38.15;29.73;;;6.30;99.90;;;;;;5074352;28;20120;-61
2022/04/17 01:15:37;;;;;;;39.60;31.10;;;6.20;99.90;;;;;;5074681;28;20048;-62
2022/04/17 01:18:03;;;;;;;38.55;29.88;;;6.10;99.90;;;;;;5072805;28;20048;-63
2022/04/17 01:20:29;;;;;;;37.80;29.13;;;6.00;99.90;;;;;;5056421;28;20056;-63
2022/04/17 01:26:56;;;;;;;37.60;29.05;;;6.00;99.90;;;;;;5074270;28;20173;-62
2022/04/17 01:28:27;;;;;;;38.22;30.02;;;5.90;99.90;;;;;;5074467;28;20056;-63
2022/04/17 01:30:56;;;;;;;38.25;28.92;;;5.70;99.90;;;;;;5073050;28;20056;-62
2022/04/17 01:33:23;;;;;;;38.95;28.40;;;5.90;99.90;;;;;;5074358;28;20044;-62
2022/04/17 01:35:49;;;;;;;35.75;29.15;;;5.90;99.90;;;;;;5074284;28;20053;-74
2022/04/17 01:38:15;;;;;;;36.72;28.70;;;5.80;99.90;;;;;;5074661;28;20135;-62
2022/04/17 01:40:41;;;;;;;38.13;30.27;;;5.80;99.90;;;;;;5056301;28;20123;-63
2022/04/17 01:43:08;;;;;;;37.30;29.75;;;5.80;99.90;;;;;;5073947;28;20048;-61
2022/04/17 01:45:34;;;;;;;33.67;24.83;;;5.80;99.90;;;;;;5074273;28;20060;-62
2022/04/17 01:48:00;;;;;;;34.22;26.58;;;5.80;99.90;;;;;;5073732;28;20106;-63
2022/04/17 01:50:27;;;;;;;36.17;27.25;;;6.10;99.90;;;;;;5074211;28;20048;-62
2022/04/17 01:52:53;;;;;;;36.10;28.20;;;5.70;99.90;;;;;;5073534;28;20539;-63
2022/04/17 01:55:19;;;;;;;37.47;29.60;;;5.70;99.90;;;;;;5073030;28;20048;-63
2022/04/17 01:57:45;;;;;;;39.15;29.58;;;5.70;99.90;;;;;;5074121;28;20052;-63
2022/04/17 02:00:11;;;;;;;37.08;29.88;;;5.70;99.90;;;;;;5073550;28;20032;-63
2022/04/17 02:02:37;;;;;;;38.60;30.30;;;5.70;99.90;;;;;;5073877;28;20375;-61
2022/04/17 02:05:04;;;;;;;40.63;31.42;;;5.70;99.90;;;;;;5073649;28;20055;-61
2022/04/17 02:07:29;;;;;;;39.53;30.77;;;5.70;99.90;;;;;;5073867;28;20053;-62
2022/04/17 02:09:55;;;;;;;39.05;29.75;;;5.90;99.90;;;;;;5073312;28;20043;-65
2022/04/17 02:12:22;;;;;;;41.78;33.28;;;5.70;99.90;;;;;;5072628;28;20041;-62
2022/04/17 02:14:48;;;;;;;46.60;33.67;;;5.60;99.90;;;;;;5073795;28;20054;-62
2022/04/17 02:17:14;;;;;;;42.42;33.45;;;5.60;99.90;;;;;;5071319;28;20124;-64
2022/04/17 02:19:39;;;;;;;47.00;36.45;;;5.50;99.90;;;;;;5072318;28;20115;-63
2022/04/17 02:22:05;;;;;;;45.13;36.20;;;5.40;99.90;;;;;;5072948;28;20094;-62
2022/04/17 02:24:32;;;;;;;48.65;37.25;;;5.40;99.90;;;;;;5072373;28;20055;-62
2022/04/17 02:26:58;;;;;;;47.03;38.65;;;5.40;99.90;;;;;;5072854;28;20041;-62
2022/04/17 02:29:24;;;;;;;50.80;39.90;;;5.30;99.90;;;;;;5073416;28;20040;-64
2022/04/17 02:31:49;;;;;;;46.55;37.60;;;5.30;99.90;;;;;;5073461;28;20054;-62
2022/04/17 02:34:15;;;;;;;46.80;38.28;;;5.30;99.90;;;;;;5072622;28;20131;-62
2022/04/17 02:36:41;;;;;;;45.47;36.38;;;5.30;99.90;;;;;;5072731;28;20135;-62
2022/04/17 02:39:07;;;;;;;47.83;37.67;;;5.20;99.90;;;;;;5072623;28;20049;-62
2022/04/17 02:41:32;;;;;;;50.25;38.30;;;5.20;99.90;;;;;;5073199;28;20128;-62
2022/04/17 02:43:58;;;;;;;47.03;37.17;;;5.20;99.90;;;;;;5071549;28;20131;-64
2022/04/17 02:49:08;;;;;;;44.72;37.70;;;5.10;99.90;;;;;;5072483;28;20051;-64
2022/04/17 02:51:33;;;;;;;47.22;37.55;;;5.10;99.90;;;;;;5071361;28;20077;-64
2022/04/17 02:54:00;;;;;;;49.05;38.45;;;5.00;99.90;;;;;;5070963;28;20047;-67
2022/04/17 02:56:26;;;;;;;49.00;38.50;;;4.90;99.90;;;;;;5071642;28;20097;-62
2022/04/17 02:58:54;;;;;;;48.13;39.60;;;4.80;99.90;;;;;;5073123;28;20045;-63
2022/04/17 03:06:50;;;;;;;50.35;38.95;;;4.80;99.90;;;;;;5072468;28;20052;-63
2022/04/17 03:09:16;;;;;;;51.15;38.65;;;4.80;99.90;;;;;;5071009;28;20041;-63
2022/04/17 03:11:42;;;;;;;47.28;37.22;;;4.70;99.90;;;;;;5054843;28;20056;-63
2022/04/17 03:14:08;;;;;;;45.53;35.10;;;4.70;99.90;;;;;;5072285;28;20059;-62
2022/04/17 03:16:33;;;;;;;44.15;36.58;;;4.70;99.90;;;;;;5071527;28;20398;-62
2022/04/17 03:18:59;;;;;;;44.78;36.20;;;4.80;99.90;;;;;;5072416;28;20044;-66
2022/04/17 03:21:25;;;;;;;42.78;34.20;;;4.80;99.90;;;;;;5054505;28;20063;-62
2022/04/17 03:23:50;;;;;;;40.97;31.67;;;4.80;99.90;;;;;;5072447;28;20048;-62
2022/04/17 03:26:16;;;;;;;42.20;32.08;;;4.70;99.90;;;;;;5072020;28;20044;-62
2022/04/17 03:28:42;;;;;;;38.53;31.13;;;4.70;99.90;;;;;;5071759;28;20055;-64
2022/04/17 03:31:07;;;;;;;40.65;31.33;;;5.20;99.90;;;;;;5069930;28;20048;-62
2022/04/17 03:33:33;;;;;;;36.72;28.63;;;4.70;99.90;;;;;;5072136;28;20091;-61
2022/04/17 03:35:58;;;;;;;35.67;28.15;;;4.70;99.90;;;;;;5071988;28;20092;-62
2022/04/17 03:38:24;;;;;;;38.30;28.50;;;4.70;99.90;;;;;;5070068;28;20044;-62
2022/04/17 03:40:50;;;;;;;34.65;27.30;;;4.70;99.90;;;;;;5071894;28;20106;-62
2022/04/17 03:43:16;;;;;;;35.78;27.42;;;4.60;99.90;;;;;;5071387;28;20449;-63
2022/04/17 03:45:46;;;;;;;32.92;26.02;;;4.90;99.90;;;;;;5071903;28;20036;-62
2022/04/17 03:48:13;;;;;;;33.38;25.65;;;4.60;99.90;;;;;;5071825;28;20445;-63
2022/04/17 03:50:39;;;;;;;32.45;26.48;;;4.60;99.90;;;;;;5071782;28;20406;-62
2022/04/17 03:53:05;;;;;;;36.70;27.27;;;4.50;99.90;;;;;;5069957;28;20057;-66
2022/04/17 03:55:32;;;;;;;32.22;25.58;;;5.20;99.90;;;;;;5071725;28;20044;-62
2022/04/17 03:57:57;;;;;;;34.53;25.92;;;4.50;99.90;;;;;;5071589;28;20052;-62
2022/04/17 04:00:23;;;;;;;34.13;26.35;;;4.50;99.90;;;;;;5069862;28;20055;-62
2022/04/17 04:02:51;;;;;;;31.95;23.05;;;4.90;99.90;;;;;;5071419;28;20056;-62
2022/04/17 04:05:18;;;;;;;32.47;24.00;;;4.50;99.90;;;;;;5071176;28;20068;-61
2022/04/17 04:07:44;;;;;;;30.00;22.58;;;4.50;99.90;;;;;;5071562;28;20414;-64
2022/04/17 04:10:10;;;;;;;32.13;24.05;;;4.50;99.90;;;;;;5069936;28;20059;-62
2022/04/17 04:12:37;;;;;;;30.92;22.48;;;4.50;99.90;;;;;;5071188;28;20048;-63
2022/04/17 04:15:04;;;;;;;29.90;22.33;;;4.40;99.90;;;;;;5071495;28;20394;-63
2022/04/17 04:17:30;;;;;;;27.58;21.38;;;4.40;99.90;;;;;;5071010;28;20048;-64
2022/04/17 04:19:55;;;;;;;29.10;22.13;;;4.50;99.90;;;;;;5071262;28;20048;-63
2022/04/17 04:22:21;;;;;;;28.77;20.80;;;4.40;99.90;;;;;;5070509;28;20052;-63
2022/04/17 04:24:47;;;;;;;28.00;20.58;;;4.50;99.90;;;;;;5071370;28;20052;-62
2022/04/17 04:29:57;;;;;;;27.70;20.77;;;4.40;99.90;;;;;;5070025;28;20058;-63
2022/04/17 04:32:23;;;;;;;29.50;21.38;;;4.50;99.90;;;;;;5069433;28;20048;-62
2022/04/17 04:34:48;;;;;;;29.88;21.15;;;4.40;99.90;;;;;;5071048;28;20474;-63
2022/04/17 04:37:15;;;;;;;29.02;20.50;;;4.40;99.90;;;;;;5070782;28;20436;-63
2022/04/17 04:39:41;;;;;;;28.25;19.58;;;4.40;99.90;;;;;;5070909;28;20145;-62
2022/04/17 04:42:07;;;;;;;31.42;20.35;;;4.40;99.90;;;;;;5070622;28;20040;-64
2022/04/17 04:44:33;;;;;;;30.33;20.15;;;4.40;99.90;;;;;;5070554;28;20055;-61
2022/04/17 04:46:58;;;;;;;26.58;20.00;;;4.40;99.90;;;;;;5069858;28;20048;-63
2022/04/17 04:49:30;;;;;;;24.90;19.30;;;4.50;99.90;;;;;;5069217;28;20067;-62
2022/04/17 04:51:57;;;;;;;27.67;19.92;;;4.50;99.90;;;;;;5071081;28;20054;-63
2022/04/17 04:54:23;;;;;;;28.88;20.73;;;4.50;99.90;;;;;;5070286;28;20051;-63
2022/04/17 04:56:48;;;;;;;26.48;18.98;;;4.50;99.90;;;;;;5070959;28;20139;-63
2022/04/17 04:59:14;;;;;;;27.52;19.88;;;4.50;99.90;;;;;;5069981;28;20447;-66
2022/04/17 05:01:39;;;;;;;27.65;19.85;;;4.70;99.90;;;;;;5070475;28;20044;-62
2022/04/17 05:04:05;;;;;;;26.63;19.00;;;4.60;99.90;;;;;;5070940;28;20179;-64
2022/04/17 05:06:31;;;;;;;29.55;19.95;;;4.50;99.90;;;;;;5069283;28;20634;-65
2022/04/17 05:08:56;;;;;;;27.90;18.10;;;4.50;99.90;;;;;;5069599;28;20041;-62
2022/04/17 05:11:23;;;;;;;26.42;18.95;;;4.50;99.90;;;;;;5068993;28;20049;-62
2022/04/17 05:13:49;;;;;;;28.20;19.27;;;4.50;99.90;;;;;;5070597;28;20052;-63
2022/04/17 05:16:15;;;;;;;28.52;19.55;;;4.60;99.90;;;;;;5070336;28;20136;-68
2022/04/17 05:18:41;;;;;;;28.60;20.02;;;4.60;99.90;;;;;;5069106;28;20052;-64
2022/04/17 05:21:07;;;;;;;26.58;19.23;;;4.80;99.90;;;;;;5070769;28;20127;-63
2022/04/17 05:23:33;;;;;;;25.17;17.95;;;4.60;99.90;;;;;;5069935;28;20124;-63
2022/04/17 05:26:01;;;;;;;30.48;19.58;;;4.70;99.90;;;;;;5070494;28;20162;-64
2022/04/17 05:28:28;;;;;;;27.80;18.45;;;4.80;99.90;;;;;;5069869;28;20044;-63
2022/04/17 05:30:53;;;;;;;27.00;17.58;;;5.00;99.90;;;;;;5070593;28;20113;-66
2022/04/17 05:33:20;;;;;;;27.02;17.55;;;5.50;99.90;;;;;;5069929;28;20441;-64
2022/04/17 05:35:47;;;;;;;22.95;16.70;;;6.30;99.90;;;;;;5070490;28;20096;-63
2022/04/17 05:38:13;;;;;;;27.67;17.42;;;7.30;99.90;;;;;;5069506;28;20056;-63
2022/04/17 05:40:46;;;;;;;24.58;18.13;;;8.20;99.90;;;;;;5068224;28;20040;-62
2022/04/17 05:43:12;;;;;;;23.10;16.70;;;9.10;99.90;;;;;;5070300;28;20518;-63
2022/04/17 05:45:38;;;;;;;22.90;15.77;;;9.90;99.90;;;;;;5069698;28;20603;-63
2022/04/17 05:48:06;;;;;;;21.65;15.93;;;10.60;99.90;;;;;;5070193;28;20044;-62
2022/04/17 05:50:31;;;;;;;19.67;14.43;;;11.10;99.90;;;;;;5051907;28;20098;-63
2022/04/17 05:52:58;;;;;;;20.00;15.32;;;11.80;99.90;;;;;;5071899;28;20045;-65
2022/04/17 05:55:23;;;;;;;21.38;14.50;;;12.30;98.70;;;;;;5072534;28;20173;-62
2022/04/17 05:57:49;;;;;;;21.02;14.00;;;12.70;98.80;;;;;;5039453;28;20135;-61
2022/04/17 06:00:16;;;;;;;20.02;13.93;;;13.10;96.30;;;;;;5072733;28;20105;-64
2022/04/17 06:02:44;;;;;;;19.67;12.73;;;13.70;96.50;;;;;;5073420;28;20143;-62
2022/04/17 06:05:10;;;;;;;18.05;13.40;;;14.30;96.40;;;;;;5072710;28;20056;-62
2022/04/17 06:07:36;;;;;;;17.42;13.10;;;14.60;93.10;;;;;;5073189;28;20454;-62
2022/04/17 06:10:12;;;;;;;16.67;12.82;;;14.70;92.20;;;;;;5073774;28;20040;-63
2022/04/17 06:12:38;;;;;;;16.30;12.43;;;15.10;90.40;;;;;;5072925;28;20509;-65
2022/04/17 06:15:05;;;;;;;19.65;13.57;;;15.20;88.60;;;;;;5073692;28;20045;-63
2022/04/17 06:17:42;;;;;;;15.32;11.38;;;15.60;89.20;;;;;;5073084;28;20087;-64
2022/04/17 06:20:10;;;;;;;17.50;11.85;;;15.90;85.60;;;;;;5073553;28;20080;-63
2022/04/17 06:22:36;;;;;;;14.95;12.13;;;16.10;88.00;;;;;;5073017;28;20052;-63
2022/04/17 06:25:10;;;;;;;15.80;11.75;;;16.30;79.80;;;;;;5073496;28;20071;-62
2022/04/17 06:27:40;;;;;;;16.30;12.23;;;16.60;79.70;;;;;;5072760;28;20474;-65
2022/04/17 06:30:15;;;;;;;14.18;11.30;;;16.90;78.50;;;;;;5073381;28;20036;-62
2022/04/17 06:32:41;;;;;;;;;;;17.00;79.80;;;;;;5073706;28;20117;-63
2022/04/17 06:35:08;;;;;;;13.98;10.60;;;17.30;76.60;;;;;;5073230;28;19928;-62
2022/04/17 06:38:01;;;;;;;14.45;11.13;;;17.80;79.50;;;;;;5071681;28;20098;-62
2022/04/17 06:40:28;;;;;;;14.05;10.55;;;18.20;77.00;;;;;;5072526;28;20124;-64
2022/04/17 06:42:56;;;;;;;13.57;9.77;;;18.20;77.60;;;;;;5073074;28;20049;-63
2022/04/17 06:45:23;;;;;;;16.10;10.65;;;18.20;75.50;;;;;;5073084;28;20044;-63
2022/04/17 06:47:49;;;;;;;14.32;10.38;;;18.40;74.20;;;;;;5072515;28;20123;-63
2022/04/17 06:50:16;;;;;;;14.35;11.02;;;18.60;71.20;;;;;;5071655;28;20044;-64
2022/04/17 06:52:42;;;;;;;12.77;10.32;;;19.00;74.50;;;;;;5072624;28;20087;-62
2022/04/17 06:55:12;;;;;;;15.52;9.88;;;19.30;69.90;;;;;;5071690;28;20083;-63
2022/04/17 06:57:43;;;;;;;14.85;10.27;;;19.50;72.10;;;;;;5072377;28;20055;-62
2022/04/17 07:00:10;;;;;;;12.52;10.48;;;19.20;68.10;;;;;;5072889;28;20414;-64
2022/04/17 07:02:39;;;;;;;13.27;9.80;;;19.30;70.50;;;;;;5071336;28;20059;-64
2022/04/17 07:05:06;;;;;;;12.68;9.63;;;19.40;71.40;;;;;;5072241;28;20509;-63
2022/04/17 07:07:32;;;;;;;12.57;9.75;;;19.30;69.20;;;;;;5070933;28;20056;-64
2022/04/17 07:09:58;;;;;;;11.73;9.05;;;19.10;67.90;;;;;;5072384;28;20079;-63
2022/04/17 07:12:23;;;;;;;12.55;9.48;;;19.30;68.50;;;;;;5071504;28;20106;-63
2022/04/17 07:14:50;;;;;;;12.82;9.18;;;19.50;67.40;;;;;;5054235;28;20221;-63
2022/04/17 07:17:16;;;;;;;11.70;9.18;;;19.50;68.20;;;;;;5071335;28;20398;-63
2022/04/17 07:19:42;;;;;;;12.13;9.10;;;19.40;65.70;;;;;;5071440;28;20041;-61
2022/04/17 07:22:08;;;;;;;11.40;8.27;;;19.70;66.30;;;;;;5072181;28;20131;-63
2022/04/17 07:24:33;;;;;;;10.60;8.00;;;20.10;64.90;;;;;;5071562;28;20052;-63
2022/04/17 07:27:00;;;;;;;10.80;7.32;;;20.20;65.80;;;;;;5072032;28;20121;-62
2022/04/17 07:29:27;;;;;;;11.52;8.18;;;20.50;63.80;;;;;;5070647;28;20091;-62
2022/04/17 07:31:53;;;;;;;12.55;8.00;;;20.30;63.80;;;;;;5070154;28;20127;-63
2022/04/17 07:34:20;;;;;;;9.43;7.80;;;20.40;62.00;;;;;;5071969;28;20045;-64
2022/04/17 07:36:54;;;;;;;13.45;7.55;;;20.30;62.10;;;;;;5053433;28;20109;-64
2022/04/17 07:39:22;;;;;;;10.38;8.10;;;20.60;61.80;;;;;;5071573;28;20048;-64
2022/04/17 07:41:48;;;;;;;11.27;7.28;;;20.60;61.80;;;;;;5071405;28;20048;-63
2022/04/17 07:44:14;;;;;;;9.52;7.53;;;20.70;61.90;;;;;;5071533;28;20490;-66
2022/04/17 07:46:41;;;;;;;9.50;7.35;;;21.20;62.30;;;;;;5071217;28;20045;-64
2022/04/17 07:49:07;;;;;;;10.25;7.50;;;21.10;61.00;;;;;;5071315;28;20079;-63
2022/04/17 07:51:33;;;;;;;13.98;7.05;;;21.20;61.60;;;;;;5071265;28;20099;-68
2022/04/17 07:53:58;;;;;;;10.27;7.75;;;21.50;61.00;;;;;;5069939;28;20502;-63
2022/04/17 07:56:24;;;;;;;11.40;7.55;;;21.60;60.40;;;;;;5071446;28;20090;-63
2022/04/17 07:58:50;;;;;;;8.55;6.95;;;21.60;59.90;;;;;;5070644;28;20128;-63
2022/04/17 08:01:16;;;;;;;11.35;7.63;;;21.60;58.70;;;;;;5070718;28;20064;-68
2022/04/17 08:06:10;;;;;;;9.15;7.25;;;22.20;58.50;;;;;;5071537;28;20412;-63
2022/04/17 08:08:37;;;;;;;10.18;6.57;;;22.50;59.10;;;;;;5070495;28;20067;-69
2022/04/17 08:11:07;;;;;;;8.63;6.72;;;22.90;58.40;;;;;;5070711;28;20639;-63
2022/04/17 08:13:35;;;;;;;9.70;7.18;;;22.80;57.20;;;;;;5069728;28;20063;-62
2022/04/17 08:16:02;;;;;;;9.60;6.95;;;22.90;57.40;;;;;;5069072;28;20071;-62
2022/04/17 08:18:28;;;;;;;8.48;7.22;;;23.20;57.50;;;;;;5070710;28;20048;-62
2022/04/17 08:20:54;;;;;;;9.50;7.22;;;23.30;57.10;;;;;;5070326;28;20052;-62
2022/04/17 08:23:19;;;;;;;9.55;7.40;;;23.30;56.50;;;;;;5070429;28;20071;-62
2022/04/17 08:25:46;;;;;;;8.63;7.03;;;23.40;56.30;;;;;;5070181;28;20049;-64
2022/04/17 08:28:12;;;;;;;8.43;7.18;;;23.50;56.10;;;;;;5069565;28;20045;-65
2022/04/17 08:30:38;;;;;;;8.52;6.63;;;23.20;55.50;;;;;;5070236;28;20166;-69
2022/04/17 08:33:06;;;;;;;9.23;7.13;;;23.00;55.40;;;;;;5069062;28;20124;-64
2022/04/17 08:35:32;;;;;;;9.40;6.85;;;23.10;55.50;;;;;;5069258;28;20406;-66
2022/04/17 08:38:01;;;;;;;9.10;7.05;;;23.20;55.20;;;;;;5070284;28;20127;-63
2022/04/17 08:40:28;;;;;;;8.68;6.43;;;23.40;55.40;;;;;;5070575;28;20041;-62
2022/04/17 08:42:54;;;;;;;8.27;6.55;;;23.60;55.60;;;;;;5068976;28;20056;-63
2022/04/17 08:45:20;;;;;;;9.70;7.25;;;23.60;56.00;;;;;;5069720;28;20501;-64
2022/04/17 08:47:46;;;;;;;11.15;6.80;;;23.70;55.50;;;;;;5070296;28;20078;-62
2022/04/17 08:50:18;;;;;;;10.00;6.50;;;23.50;55.60;;;;;;5069036;28;20113;-64
2022/04/17 08:52:49;;;;;;;8.80;6.60;;;23.40;55.70;;;;;;5069982;28;20055;-64
2022/04/17 08:55:15;;;;;;;8.15;6.28;;;23.30;54.50;;;;;;5068982;28;20124;-63
2022/04/17 08:57:41;;;;;;;8.32;5.85;;;23.40;55.30;;;;;;5069281;28;20136;-69
2022/04/17 09:00:10;;;;;;;8.25;6.25;;;23.60;54.20;;;;;;5070636;28;20497;-64
2022/04/17 09:02:36;;;;;;;8.70;6.03;;;23.60;53.90;;;;;;5070675;28;20095;-65
2022/04/17 09:05:06;;;;;;;7.95;6.45;;;23.30;55.00;;;;;;5070523;28;20040;-66
2022/04/17 09:07:39;;;;;;;7.25;5.78;;;23.40;53.90;;;;;;5070965;28;20390;-64
2022/04/17 09:10:05;;;;;;;9.83;6.63;;;23.80;53.70;;;;;;5069206;28;20770;-63
2022/04/17 09:12:31;;;;;;;9.00;6.18;;;24.20;53.10;;;;;;5070800;28;20059;-66
2022/04/17 09:14:57;;;;;;;11.07;6.68;;;24.00;53.30;;;;;;5069853;28;20044;-63
2022/04/17 09:17:33;;;;;;;7.18;5.65;;;23.90;52.90;;;;;;5070838;28;20151;-63
2022/04/17 09:20:00;;;;;;;8.52;6.55;;;23.90;53.20;;;;;;5070356;28;20040;-63
2022/04/17 09:22:45;;;;;;;7.68;5.95;;;24.10;53.00;;;;;;5070862;28;20098;-62
2022/04/17 09:25:12;;;;;;;7.93;5.78;;;24.80;52.50;;;;;;5070449;28;20052;-64
2022/04/17 09:27:41;;;;;;;7.72;5.97;;;24.90;52.80;;;;;;5069360;28;20094;-65
2022/04/17 09:30:29;;;;;;;8.02;5.63;;;25.10;51.60;;;;;;5071689;28;20060;-63
2022/04/17 09:32:56;;;;;;;7.82;5.95;;;25.30;51.90;;;;;;5073318;28;20060;-63
2022/04/17 09:35:23;;;;;;;9.15;6.10;;;24.50;51.60;;;;;;5073855;28;20059;-62
2022/04/17 09:37:53;;;;;;;7.82;5.88;;;23.60;51.60;;;;;;5073463;28;20079;-63
2022/04/17 09:40:23;;;;;;;6.78;5.88;;;23.00;52.00;;;;;;5074036;28;20049;-64
2022/04/17 09:42:49;;;;;;;7.85;5.50;;;22.20;52.40;;;;;;5072620;28;20090;-68
2022/04/17 09:45:15;;;;;;;9.00;5.90;;;21.70;52.30;;;;;;5073096;28;20076;-62
2022/04/17 09:47:54;;;;;;;7.32;5.78;;;21.40;52.30;;;;;;5074100;28;20044;-62
2022/04/17 09:50:32;;;;;;;7.65;5.00;;;21.00;52.30;;;;;;5073858;28;20351;-62
2022/04/17 09:52:59;;;;;;;7.28;5.40;;;20.60;52.50;;;;;;5071541;28;20113;-66
2022/04/17 09:55:29;;;;;;;7.63;5.35;;;20.40;52.20;;;;;;5072352;28;20044;-62
2022/04/17 09:57:58;;;;;;;7.80;5.13;;;20.30;52.10;;;;;;5073056;28;20393;-63
2022/04/17 10:00:25;;;;;;;7.82;5.82;;;20.30;52.50;;;;;;5073128;28;20045;-63
2022/04/17 10:02:51;;;;;;;7.35;5.45;;;20.10;52.60;;;;;;5072190;28;20127;-69
2022/04/17 10:05:19;;;;;;;7.57;5.05;;;19.80;52.70;;;;;;5072719;28;20045;-65
2022/04/17 10:07:46;;;;;;;7.10;5.25;;;19.50;52.60;;;;;;5073409;28;20045;-66
2022/04/17 10:10:14;;;;;;;5.63;3.95;;;19.20;52.10;;;;;;5073139;28;20040;-63
2022/04/17 10:12:41;;;;;;;5.72;3.90;;;18.90;51.90;;;;;;5073216;28;20509;-67
2022/04/17 10:15:07;;;;;;;6.95;4.70;;;18.80;51.90;;;;;;5071926;28;20381;-64
2022/04/17 10:17:41;;;;;;;6.97;4.78;;;18.60;52.30;;;;;;5072428;28;20051;-65
2022/04/17 10:20:11;;;;;;;;;;;18.50;52.90;;;;;;5072714;28;20040;-64
2022/04/17 10:22:43;;;;;;;7.88;5.22;;;18.40;53.30;;;;;;5070839;28;19930;-62
2022/04/17 10:25:09;;;;;;;6.78;4.50;;;18.40;53.80;;;;;;5070422;28;20470;-63
2022/04/17 10:27:46;;;;;;;5.97;4.30;;;18.60;53.30;;;;;;5073290;28;20063;-65
2022/04/17 10:30:18;;;;;;;8.25;4.25;;;18.70;53.00;;;;;;5073110;28;20448;-62
2022/04/17 10:33:26;;;;;;;5.68;3.50;;;18.50;52.60;;;;;;5071777;28;20067;-61
2022/04/17 10:35:57;;;;;;;5.60;3.97;;;18.30;49.80;;;;;;5043605;28;20052;-62
2022/04/17 10:38:29;;;;;;;4.03;3.08;;;18.50;50.50;;;;;;5072719;28;20402;-62
2022/04/17 10:41:07;;;;;;;5.30;3.35;;;18.40;50.70;;;;;;5072804;28;20458;-67
2022/04/17 10:43:42;;;;;;;4.57;3.30;;;18.40;50.20;;;;;;5071804;28;20532;-64
2022/04/17 10:46:09;;;;;;;5.55;3.90;;;18.40;50.80;;;;;;5072663;28;20048;-63
2022/04/17 10:48:44;;;;;;;4.97;3.78;;;18.40;50.70;;;;;;5071618;28;20501;-61
2022/04/17 10:51:19;;;;;;;6.75;4.00;;;18.50;51.20;;;;;;5054284;28;20083;-63
2022/04/17 10:54:05;;;;;;;5.45;4.10;;;18.50;51.00;;;;;;5072223;28;20052;-62
2022/04/17 10:56:39;;;;;;;5.88;3.50;;;18.50;51.30;;;;;;5072108;28;20048;-63
2022/04/17 10:59:19;;;;;;;4.10;2.92;;;18.30;50.90;;;;;;5072168;28;20053;-65
2022/04/17 11:01:44;;;;;;;5.18;2.97;;;18.10;49.10;;;;;;5071684;28;20143;-61
2022/04/17 11:04:18;;;;;;;6.00;3.13;;;17.90;49.90;;;;;;5072170;28;20063;-64
2022/04/17 11:06:45;;;;;;;5.07;3.25;;;18.00;50.20;;;;;;5072214;28;20379;-66
2022/04/17 11:09:12;;;;;;;6.20;3.28;;;18.10;50.00;;;;;;5071731;28;20131;-63
2022/04/17 11:11:46;;;;;;;5.95;3.30;;;18.20;49.70;;;;;;5071486;28;20075;-63
2022/04/17 11:14:18;;;;;;;4.90;3.40;;;18.30;49.40;;;;;;5072224;28;20105;-62
2022/04/17 11:16:56;;;;;;;6.15;2.75;;;18.20;48.70;;;;;;5071561;28;20059;-62
2022/04/17 11:19:27;;;;;;;7.68;3.38;;;18.10;48.70;;;;;;5071830;28;20115;-64
2022/04/17 11:21:55;;;;;;;4.63;2.97;;;18.10;49.00;;;;;;5071211;28;20056;-63
2022/04/17 11:24:22;;;;;;;5.30;3.58;;;18.00;47.10;;;;;;5071851;28;20094;-63
2022/04/17 11:26:53;;;;;;;4.70;2.60;;;17.90;48.00;;;;;;5070876;28;20076;-63
2022/04/17 11:29:44;;;;;;;5.03;3.10;;;18.00;49.20;;;;;;5071660;28;20047;-63
2022/04/17 11:32:18;;;;;;;6.32;3.40;;;18.00;49.20;;;;;;5070382;28;20048;-62
2022/04/17 11:34:53;;;;;;;6.60;3.55;;;17.80;50.10;;;;;;5070834;28;20071;-65
2022/04/17 11:37:23;;;;;;;4.78;3.45;;;17.80;49.70;;;;;;5069761;28;20064;-63
2022/04/17 11:39:52;;;;;;;4.28;3.20;;;17.70;50.30;;;;;;5072077;28;20040;-62
2022/04/17 11:42:18;;;;;;;5.30;3.55;;;17.70;49.90;;;;;;5071384;28;20174;-65
2022/04/17 11:44:45;;;;;;;5.82;3.85;;;17.70;50.50;;;;;;5070789;28;20137;-63
2022/04/17 11:47:20;;;;;;;5.25;3.53;;;17.70;51.60;;;;;;5071520;28;20249;-62
2022/04/17 11:49:47;;;;;;;6.65;3.88;;;17.80;51.40;;;;;;5070058;28;20367;-62
2022/04/17 11:52:21;;;;;;;4.63;3.35;;;17.90;51.30;;;;;;5070037;28;20063;-63
2022/04/17 11:54:48;;;;;;;6.47;4.00;;;17.90;51.00;;;;;;5071765;28;20131;-62
2022/04/17 11:57:18;;;;;;;5.82;3.90;;;17.80;50.90;;;;;;5053657;28;20490;-63
2022/04/17 11:59:51;;;;;;;8.25;3.63;;;17.90;51.80;;;;;;5071573;28;20048;-62
2022/04/17 12:02:25;;;;;;;6.50;3.55;;;17.90;50.40;;;;;;5071155;28;20088;-62
2022/04/17 12:04:52;;;;;;;6.20;3.50;;;17.80;50.90;;;;;;5070577;28;20155;-62
2022/04/17 12:07:20;;;;;;;4.95;3.42;;;17.60;51.30;;;;;;5071396;28;20324;-62
2022/04/17 12:09:48;;;;;;;6.15;3.90;;;17.40;50.20;;;;;;5071572;28;20048;-62
2022/04/17 12:12:19;;;;;;;4.88;3.10;;;17.40;51.10;;;;;;5053872;28;20062;-62
2022/04/17 12:14:46;;;;;;;5.07;3.70;;;17.50;51.90;;;;;;5070306;28;20044;-62
2022/04/17 12:17:16;;;;;;;5.90;4.00;;;17.60;51.70;;;;;;5070626;28;20506;-64
2022/04/17 12:19:51;;;;;;;5.72;4.20;;;17.70;52.30;;;;;;5053278;28;20055;-65
2022/04/17 12:22:18;;;;;;;6.05;3.75;;;17.80;53.70;;;;;;5052791;28;20044;-62
2022/04/17 12:24:45;;;;;;;5.93;3.75;;;17.80;52.60;;;;;;5071186;28;20105;-62
2022/04/17 12:27:19;;;;;;;7.25;4.22;;;17.80;51.40;;;;;;5069433;28;20055;-64
2022/04/17 12:29:50;;;;;;;5.97;4.15;;;17.80;52.00;;;;;;5069956;28;20093;-64
2022/04/17 12:32:17;;;;;;;5.82;4.03;;;17.70;52.80;;;;;;5069618;28;20052;-61
2022/04/17 12:34:47;;;;;;;6.72;4.50;;;17.70;52.80;;;;;;5070812;28;20474;-65
2022/04/17 12:37:25;;;;;;;6.50;4.22;;;17.70;53.10;;;;;;5069035;28;20075;-64
2022/04/17 12:39:50;;;;;;;7.63;4.70;;;17.80;53.30;;;;;;5053104;28;20045;-62
2022/04/17 12:42:19;;;;;;;6.97;4.80;;;17.90;53.70;;;;;;5069142;28;20047;-65
2022/04/17 12:44:47;;;;;;;6.80;4.60;;;17.90;53.50;;;;;;5070926;28;20067;-62
2022/04/17 12:47:14;;;;;;;8.57;5.20;;;17.90;53.70;;;;;;5069464;28;20051;-63
2022/04/17 12:49:40;;;;;;;6.55;4.53;;;17.90;54.30;;;;;;5070940;28;20442;-63
2022/04/17 12:52:07;;;;;;;7.25;4.63;;;18.00;53.40;;;;;;5070925;28;20063;-63
2022/04/17 12:54:37;;;;;;;7.45;4.47;;;17.90;53.80;;;;;;5070331;28;20044;-66
2022/04/17 12:57:12;;;;;;;6.47;4.68;;;18.00;54.00;;;;;;5070817;28;20508;-62
2022/04/17 12:59:51;;;;;;;7.32;4.90;;;18.00;52.70;;;;;;5070733;28;20186;-62